sensor_id;sensor_type;location;lat;lon;timestamp;P1;durP1;ratioP1;P2;durP2;ratioP2
14799;SDS011;7491;57.750;11.970;2023-01-29T00:02:24;26.20;;;3.33;;
14799;SDS011;7491;57.750;11.970;2023-01-29T00:04:50;25.13;;;3.85;;
14799;SDS011;7491;57.750;11.970;2023-01-29T00:07:17;28.65;;;3.25;;
14799;SDS011;7491;57.750;11.970;2023-01-29T00:09:44;21.95;;;2.90;;
14799;SDS011;7491;57.750;11.970;2023-01-29T00:12:10;36.58;;;4.22;;
14799;SDS011;7491;57.750;11.970;2023-01-29T00:14:36;26.20;;;3.40;;
14799;SDS011;7491;57.750;11.970;2023-01-29T00:17:04;23.35;;;2.83;;
14799;SDS011;7491;57.750;11.970;2023-01-29T00:19:31;17.75;;;2.72;;
14799;SDS011;7491;57.750;11.970;2023-01-29T00:21:57;29.05;;;2.63;;
14799;SDS011;7491;57.750;11.970;2023-01-29T00:24:23;33.53;;;3.45;;
14799;SDS011;7491;57.750;11.970;2023-01-29T00:26:50;24.13;;;3.53;;
14799;SDS011;7491;57.750;11.970;2023-01-29T00:29:16;29.02;;;3.22;;
14799;SDS011;7491;57.750;11.970;2023-01-29T00:31:43;31.98;;;3.13;;
14799;SDS011;7491;57.750;11.970;2023-01-29T00:34:11;23.98;;;2.97;;
14799;SDS011;7491;57.750;11.970;2023-01-29T00:36:37;30.25;;;3.60;;
14799;SDS011;7491;57.750;11.970;2023-01-29T00:39:04;29.15;;;3.70;;
14799;SDS011;7491;57.750;11.970;2023-01-29T00:41:35;26.35;;;3.08;;
14799;SDS011;7491;57.750;11.970;2023-01-29T00:44:18;27.63;;;2.95;;
14799;SDS011;7491;57.750;11.970;2023-01-29T00:47:03;29.05;;;3.55;;
14799;SDS011;7491;57.750;11.970;2023-01-29T00:49:51;21.25;;;2.75;;
14799;SDS011;7491;57.750;11.970;2023-01-29T00:52:17;33.90;;;3.60;;
14799;SDS011;7491;57.750;11.970;2023-01-29T00:54:49;37.85;;;4.05;;
14799;SDS011;7491;57.750;11.970;2023-01-29T00:57:16;19.48;;;2.80;;
14799;SDS011;7491;57.750;11.970;2023-01-29T00:59:42;29.42;;;4.38;;
14799;SDS011;7491;57.750;11.970;2023-01-29T01:02:09;29.85;;;3.63;;
14799;SDS011;7491;57.750;11.970;2023-01-29T01:04:54;27.65;;;4.10;;
14799;SDS011;7491;57.750;11.970;2023-01-29T01:07:20;31.80;;;3.65;;
14799;SDS011;7491;57.750;11.970;2023-01-29T01:09:47;25.10;;;3.63;;
14799;SDS011;7491;57.750;11.970;2023-01-29T01:12:31;39.97;;;5.05;;
14799;SDS011;7491;57.750;11.970;2023-01-29T01:14:58;24.48;;;3.75;;
14799;SDS011;7491;57.750;11.970;2023-01-29T01:17:24;33.17;;;4.57;;
14799;SDS011;7491;57.750;11.970;2023-01-29T01:19:50;37.72;;;4.07;;
14799;SDS011;7491;57.750;11.970;2023-01-29T01:22:18;33.42;;;3.55;;
14799;SDS011;7491;57.750;11.970;2023-01-29T01:24:45;33.38;;;4.63;;
14799;SDS011;7491;57.750;11.970;2023-01-29T01:27:11;35.92;;;4.20;;
14799;SDS011;7491;57.750;11.970;2023-01-29T01:29:38;31.85;;;3.85;;
14799;SDS011;7491;57.750;11.970;2023-01-29T01:32:05;32.40;;;3.70;;
14799;SDS011;7491;57.750;11.970;2023-01-29T01:34:31;24.10;;;4.28;;
14799;SDS011;7491;57.750;11.970;2023-01-29T01:36:57;31.65;;;4.15;;
14799;SDS011;7491;57.750;11.970;2023-01-29T01:39:25;29.25;;;3.95;;
14799;SDS011;7491;57.750;11.970;2023-01-29T01:41:52;39.50;;;3.85;;
14799;SDS011;7491;57.750;11.970;2023-01-29T01:47:03;36.70;;;4.07;;
14799;SDS011;7491;57.750;11.970;2023-01-29T01:49:30;30.35;;;4.80;;
14799;SDS011;7491;57.750;11.970;2023-01-29T01:51:56;33.05;;;4.65;;
14799;SDS011;7491;57.750;11.970;2023-01-29T01:54:27;34.53;;;3.50;;
14799;SDS011;7491;57.750;11.970;2023-01-29T01:56:55;34.15;;;3.97;;
14799;SDS011;7491;57.750;11.970;2023-01-29T01:59:29;26.77;;;4.13;;
14799;SDS011;7491;57.750;11.970;2023-01-29T02:01:57;30.45;;;4.32;;
14799;SDS011;7491;57.750;11.970;2023-01-29T02:04:38;34.55;;;4.03;;
14799;SDS011;7491;57.750;11.970;2023-01-29T02:07:28;22.45;;;3.20;;
14799;SDS011;7491;57.750;11.970;2023-01-29T02:10:14;29.02;;;3.97;;
14799;SDS011;7491;57.750;11.970;2023-01-29T02:12:41;32.10;;;4.43;;
14799;SDS011;7491;57.750;11.970;2023-01-29T02:15:08;37.17;;;4.32;;
14799;SDS011;7491;57.750;11.970;2023-01-29T02:17:35;33.28;;;4.18;;
14799;SDS011;7491;57.750;11.970;2023-01-29T02:20:02;26.40;;;5.72;;
14799;SDS011;7491;57.750;11.970;2023-01-29T02:22:41;32.28;;;4.53;;
14799;SDS011;7491;57.750;11.970;2023-01-29T02:25:17;29.27;;;4.00;;
14799;SDS011;7491;57.750;11.970;2023-01-29T02:28:05;35.50;;;6.45;;
14799;SDS011;7491;57.750;11.970;2023-01-29T02:30:36;31.40;;;5.10;;
14799;SDS011;7491;57.750;11.970;2023-01-29T02:33:07;29.73;;;4.35;;
14799;SDS011;7491;57.750;11.970;2023-01-29T02:35:38;35.42;;;4.45;;
14799;SDS011;7491;57.750;11.970;2023-01-29T02:38:09;37.83;;;4.55;;
14799;SDS011;7491;57.750;11.970;2023-01-29T02:40:38;33.35;;;5.72;;
14799;SDS011;7491;57.750;11.970;2023-01-29T02:43:09;42.35;;;6.45;;
14799;SDS011;7491;57.750;11.970;2023-01-29T02:45:42;31.58;;;5.57;;
14799;SDS011;7491;57.750;11.970;2023-01-29T02:48:12;29.00;;;4.43;;
14799;SDS011;7491;57.750;11.970;2023-01-29T02:50:40;38.00;;;4.75;;
14799;SDS011;7491;57.750;11.970;2023-01-29T02:53:09;37.10;;;4.30;;
14799;SDS011;7491;57.750;11.970;2023-01-29T02:55:39;38.65;;;4.85;;
14799;SDS011;7491;57.750;11.970;2023-01-29T02:58:10;43.83;;;5.80;;
14799;SDS011;7491;57.750;11.970;2023-01-29T03:00:39;32.03;;;4.50;;
14799;SDS011;7491;57.750;11.970;2023-01-29T03:03:09;41.50;;;6.07;;
14799;SDS011;7491;57.750;11.970;2023-01-29T03:05:39;28.85;;;4.68;;
14799;SDS011;7491;57.750;11.970;2023-01-29T03:08:09;37.63;;;5.00;;
14799;SDS011;7491;57.750;11.970;2023-01-29T03:10:38;32.60;;;4.15;;
14799;SDS011;7491;57.750;11.970;2023-01-29T03:13:07;33.92;;;5.47;;
14799;SDS011;7491;57.750;11.970;2023-01-29T03:15:38;48.25;;;6.30;;
14799;SDS011;7491;57.750;11.970;2023-01-29T03:18:07;39.13;;;5.95;;
14799;SDS011;7491;57.750;11.970;2023-01-29T03:20:36;35.38;;;5.15;;
14799;SDS011;7491;57.750;11.970;2023-01-29T03:23:06;34.70;;;5.97;;
14799;SDS011;7491;57.750;11.970;2023-01-29T03:25:34;37.63;;;5.32;;
14799;SDS011;7491;57.750;11.970;2023-01-29T03:28:19;36.08;;;5.85;;
14799;SDS011;7491;57.750;11.970;2023-01-29T03:31:06;33.03;;;4.63;;
14799;SDS011;7491;57.750;11.970;2023-01-29T03:33:51;34.35;;;4.50;;
14799;SDS011;7491;57.750;11.970;2023-01-29T03:36:20;32.60;;;5.97;;
14799;SDS011;7491;57.750;11.970;2023-01-29T03:38:48;29.05;;;4.85;;
14799;SDS011;7491;57.750;11.970;2023-01-29T03:41:17;25.13;;;3.63;;
14799;SDS011;7491;57.750;11.970;2023-01-29T03:43:49;37.97;;;5.55;;
14799;SDS011;7491;57.750;11.970;2023-01-29T03:46:20;43.90;;;5.32;;
14799;SDS011;7491;57.750;11.970;2023-01-29T03:48:49;27.05;;;4.75;;
14799;SDS011;7491;57.750;11.970;2023-01-29T03:51:19;38.45;;;5.05;;
14799;SDS011;7491;57.750;11.970;2023-01-29T03:53:50;31.33;;;4.40;;
14799;SDS011;7491;57.750;11.970;2023-01-29T03:56:21;42.92;;;6.68;;
14799;SDS011;7491;57.750;11.970;2023-01-29T03:58:50;42.80;;;6.40;;
14799;SDS011;7491;57.750;11.970;2023-01-29T04:01:23;31.73;;;5.55;;
14799;SDS011;7491;57.750;11.970;2023-01-29T04:03:51;37.58;;;5.53;;
14799;SDS011;7491;57.750;11.970;2023-01-29T04:06:19;34.83;;;5.53;;
14799;SDS011;7491;57.750;11.970;2023-01-29T04:08:47;37.80;;;5.55;;
14799;SDS011;7491;57.750;11.970;2023-01-29T04:11:15;33.38;;;5.32;;
14799;SDS011;7491;57.750;11.970;2023-01-29T04:13:43;40.78;;;5.97;;
14799;SDS011;7491;57.750;11.970;2023-01-29T04:16:11;39.92;;;4.50;;
14799;SDS011;7491;57.750;11.970;2023-01-29T04:18:40;41.80;;;5.75;;
14799;SDS011;7491;57.750;11.970;2023-01-29T04:21:09;34.67;;;5.88;;
14799;SDS011;7491;57.750;11.970;2023-01-29T04:23:36;29.70;;;4.13;;
14799;SDS011;7491;57.750;11.970;2023-01-29T04:26:08;33.65;;;3.95;;
14799;SDS011;7491;57.750;11.970;2023-01-29T04:28:40;24.60;;;3.97;;
14799;SDS011;7491;57.750;11.970;2023-01-29T04:31:09;17.85;;;3.60;;
14799;SDS011;7491;57.750;11.970;2023-01-29T04:33:38;38.05;;;4.82;;
14799;SDS011;7491;57.750;11.970;2023-01-29T04:36:13;23.80;;;4.25;;
14799;SDS011;7491;57.750;11.970;2023-01-29T04:38:46;29.08;;;3.97;;
14799;SDS011;7491;57.750;11.970;2023-01-29T04:41:17;26.13;;;3.53;;
14799;SDS011;7491;57.750;11.970;2023-01-29T04:43:47;33.25;;;4.03;;
14799;SDS011;7491;57.750;11.970;2023-01-29T04:46:15;30.10;;;3.67;;
14799;SDS011;7491;57.750;11.970;2023-01-29T04:48:45;33.88;;;4.78;;
14799;SDS011;7491;57.750;11.970;2023-01-29T04:51:18;29.00;;;3.92;;
14799;SDS011;7491;57.750;11.970;2023-01-29T04:53:48;23.83;;;4.40;;
14799;SDS011;7491;57.750;11.970;2023-01-29T04:56:17;28.45;;;3.45;;
14799;SDS011;7491;57.750;11.970;2023-01-29T04:58:46;29.63;;;4.35;;
14799;SDS011;7491;57.750;11.970;2023-01-29T05:01:15;23.15;;;3.55;;
14799;SDS011;7491;57.750;11.970;2023-01-29T05:03:42;33.22;;;4.65;;
14799;SDS011;7491;57.750;11.970;2023-01-29T05:06:09;24.90;;;4.22;;
14799;SDS011;7491;57.750;11.970;2023-01-29T05:08:38;22.15;;;4.20;;
14799;SDS011;7491;57.750;11.970;2023-01-29T05:11:04;31.77;;;4.95;;
14799;SDS011;7491;57.750;11.970;2023-01-29T05:13:31;33.38;;;4.80;;
14799;SDS011;7491;57.750;11.970;2023-01-29T05:16:00;37.72;;;6.43;;
14799;SDS011;7491;57.750;11.970;2023-01-29T05:18:27;36.25;;;4.90;;
14799;SDS011;7491;57.750;11.970;2023-01-29T05:20:54;31.60;;;5.07;;
14799;SDS011;7491;57.750;11.970;2023-01-29T05:23:22;37.30;;;4.63;;
14799;SDS011;7491;57.750;11.970;2023-01-29T05:25:50;37.97;;;5.90;;
14799;SDS011;7491;57.750;11.970;2023-01-29T05:28:17;31.05;;;5.28;;
14799;SDS011;7491;57.750;11.970;2023-01-29T05:30:43;35.42;;;5.53;;
14799;SDS011;7491;57.750;11.970;2023-01-29T05:33:11;31.83;;;4.93;;
14799;SDS011;7491;57.750;11.970;2023-01-29T05:35:38;37.60;;;5.57;;
14799;SDS011;7491;57.750;11.970;2023-01-29T05:38:04;34.30;;;4.82;;
14799;SDS011;7491;57.750;11.970;2023-01-29T05:40:31;32.67;;;5.47;;
14799;SDS011;7491;57.750;11.970;2023-01-29T05:42:59;27.83;;;4.63;;
14799;SDS011;7491;57.750;11.970;2023-01-29T05:45:25;28.60;;;4.90;;
14799;SDS011;7491;57.750;11.970;2023-01-29T05:47:54;30.35;;;5.10;;
14799;SDS011;7491;57.750;11.970;2023-01-29T05:50:20;35.95;;;5.53;;
14799;SDS011;7491;57.750;11.970;2023-01-29T05:52:47;29.40;;;4.75;;
14799;SDS011;7491;57.750;11.970;2023-01-29T05:55:13;36.40;;;5.60;;
14799;SDS011;7491;57.750;11.970;2023-01-29T05:57:39;36.20;;;5.10;;
14799;SDS011;7491;57.750;11.970;2023-01-29T06:00:08;32.85;;;5.82;;
14799;SDS011;7491;57.750;11.970;2023-01-29T06:02:34;34.65;;;5.20;;
14799;SDS011;7491;57.750;11.970;2023-01-29T06:05:01;36.10;;;4.40;;
14799;SDS011;7491;57.750;11.970;2023-01-29T06:07:27;23.42;;;4.20;;
14799;SDS011;7491;57.750;11.970;2023-01-29T06:09:54;37.72;;;4.88;;
14799;SDS011;7491;57.750;11.970;2023-01-29T06:12:20;34.80;;;5.82;;
14799;SDS011;7491;57.750;11.970;2023-01-29T06:14:46;34.92;;;4.93;;
14799;SDS011;7491;57.750;11.970;2023-01-29T06:17:14;38.65;;;5.32;;
14799;SDS011;7491;57.750;11.970;2023-01-29T06:19:41;35.60;;;5.97;;
14799;SDS011;7491;57.750;11.970;2023-01-29T06:22:07;37.28;;;6.18;;
14799;SDS011;7491;57.750;11.970;2023-01-29T06:24:33;43.30;;;6.15;;
14799;SDS011;7491;57.750;11.970;2023-01-29T06:27:00;35.13;;;5.70;;
14799;SDS011;7491;57.750;11.970;2023-01-29T06:29:26;38.72;;;6.30;;
14799;SDS011;7491;57.750;11.970;2023-01-29T06:31:53;24.92;;;3.83;;
14799;SDS011;7491;57.750;11.970;2023-01-29T06:34:20;31.20;;;4.97;;
14799;SDS011;7491;57.750;11.970;2023-01-29T06:36:47;31.17;;;5.32;;
14799;SDS011;7491;57.750;11.970;2023-01-29T06:39:13;40.92;;;6.18;;
14799;SDS011;7491;57.750;11.970;2023-01-29T06:41:40;31.98;;;4.35;;
14799;SDS011;7491;57.750;11.970;2023-01-29T06:44:06;34.60;;;5.05;;
14799;SDS011;7491;57.750;11.970;2023-01-29T06:46:32;35.75;;;4.50;;
14799;SDS011;7491;57.750;11.970;2023-01-29T06:48:59;28.27;;;4.20;;
14799;SDS011;7491;57.750;11.970;2023-01-29T06:51:27;29.23;;;4.90;;
14799;SDS011;7491;57.750;11.970;2023-01-29T06:53:53;32.13;;;4.88;;
14799;SDS011;7491;57.750;11.970;2023-01-29T06:56:20;29.20;;;5.68;;
14799;SDS011;7491;57.750;11.970;2023-01-29T06:58:46;34.50;;;4.32;;
14799;SDS011;7491;57.750;11.970;2023-01-29T07:01:13;30.75;;;5.80;;
14799;SDS011;7491;57.750;11.970;2023-01-29T07:03:39;26.35;;;4.22;;
14799;SDS011;7491;57.750;11.970;2023-01-29T07:06:07;24.92;;;4.07;;
14799;SDS011;7491;57.750;11.970;2023-01-29T07:08:36;23.88;;;3.83;;
14799;SDS011;7491;57.750;11.970;2023-01-29T07:11:02;29.60;;;4.13;;
14799;SDS011;7491;57.750;11.970;2023-01-29T07:13:29;22.38;;;3.55;;
14799;SDS011;7491;57.750;11.970;2023-01-29T07:15:56;28.27;;;3.72;;
14799;SDS011;7491;57.750;11.970;2023-01-29T07:18:23;23.83;;;4.97;;
14799;SDS011;7491;57.750;11.970;2023-01-29T07:20:49;24.55;;;4.13;;
14799;SDS011;7491;57.750;11.970;2023-01-29T07:23:16;22.35;;;3.22;;
14799;SDS011;7491;57.750;11.970;2023-01-29T07:25:44;22.63;;;4.40;;
14799;SDS011;7491;57.750;11.970;2023-01-29T07:28:10;22.40;;;3.65;;
14799;SDS011;7491;57.750;11.970;2023-01-29T07:30:37;29.33;;;4.47;;
14799;SDS011;7491;57.750;11.970;2023-01-29T07:33:03;31.40;;;3.90;;
14799;SDS011;7491;57.750;11.970;2023-01-29T07:35:30;34.50;;;5.50;;
14799;SDS011;7491;57.750;11.970;2023-01-29T07:37:57;25.75;;;3.75;;
14799;SDS011;7491;57.750;11.970;2023-01-29T07:40:23;22.85;;;3.25;;
14799;SDS011;7491;57.750;11.970;2023-01-29T07:42:52;24.52;;;3.75;;
14799;SDS011;7491;57.750;11.970;2023-01-29T07:45:22;24.73;;;4.35;;
14799;SDS011;7491;57.750;11.970;2023-01-29T07:47:50;27.05;;;3.33;;
14799;SDS011;7491;57.750;11.970;2023-01-29T07:50:17;25.15;;;3.42;;
14799;SDS011;7491;57.750;11.970;2023-01-29T07:52:43;26.85;;;4.43;;
14799;SDS011;7491;57.750;11.970;2023-01-29T07:55:10;27.77;;;4.45;;
14799;SDS011;7491;57.750;11.970;2023-01-29T07:57:36;21.33;;;4.13;;
14799;SDS011;7491;57.750;11.970;2023-01-29T08:00:04;20.83;;;3.95;;
14799;SDS011;7491;57.750;11.970;2023-01-29T08:02:31;28.77;;;3.95;;
14799;SDS011;7491;57.750;11.970;2023-01-29T08:04:57;20.38;;;3.45;;
14799;SDS011;7491;57.750;11.970;2023-01-29T08:07:23;22.77;;;4.07;;
14799;SDS011;7491;57.750;11.970;2023-01-29T08:09:50;20.40;;;3.75;;
14799;SDS011;7491;57.750;11.970;2023-01-29T08:12:16;17.60;;;3.20;;
14799;SDS011;7491;57.750;11.970;2023-01-29T08:14:43;19.67;;;3.90;;
14799;SDS011;7491;57.750;11.970;2023-01-29T08:17:11;20.90;;;3.70;;
14799;SDS011;7491;57.750;11.970;2023-01-29T08:19:37;28.02;;;3.58;;
14799;SDS011;7491;57.750;11.970;2023-01-29T08:22:04;14.77;;;2.75;;
14799;SDS011;7491;57.750;11.970;2023-01-29T08:24:30;20.92;;;3.78;;
14799;SDS011;7491;57.750;11.970;2023-01-29T08:26:57;24.17;;;4.38;;
14799;SDS011;7491;57.750;11.970;2023-01-29T08:29:23;19.15;;;3.28;;
14799;SDS011;7491;57.750;11.970;2023-01-29T08:31:50;19.45;;;3.75;;
14799;SDS011;7491;57.750;11.970;2023-01-29T08:34:18;20.85;;;2.92;;
14799;SDS011;7491;57.750;11.970;2023-01-29T08:36:44;21.90;;;2.97;;
14799;SDS011;7491;57.750;11.970;2023-01-29T08:39:11;17.15;;;3.33;;
14799;SDS011;7491;57.750;11.970;2023-01-29T08:41:38;17.17;;;3.60;;
14799;SDS011;7491;57.750;11.970;2023-01-29T08:44:04;23.13;;;3.75;;
14799;SDS011;7491;57.750;11.970;2023-01-29T08:46:30;18.58;;;3.13;;
14799;SDS011;7491;57.750;11.970;2023-01-29T08:49:00;22.73;;;3.60;;
14799;SDS011;7491;57.750;11.970;2023-01-29T08:51:28;15.93;;;3.30;;
14799;SDS011;7491;57.750;11.970;2023-01-29T08:53:54;21.25;;;4.47;;
14799;SDS011;7491;57.750;11.970;2023-01-29T08:56:20;19.00;;;3.22;;
14799;SDS011;7491;57.750;11.970;2023-01-29T08:58:47;21.45;;;4.68;;
14799;SDS011;7491;57.750;11.970;2023-01-29T09:01:13;22.10;;;4.03;;
14799;SDS011;7491;57.750;11.970;2023-01-29T09:03:40;15.70;;;3.28;;
14799;SDS011;7491;57.750;11.970;2023-01-29T09:06:08;20.98;;;3.38;;
14799;SDS011;7491;57.750;11.970;2023-01-29T09:08:36;15.93;;;3.78;;
14799;SDS011;7491;57.750;11.970;2023-01-29T09:11:05;20.75;;;3.42;;
14799;SDS011;7491;57.750;11.970;2023-01-29T09:13:34;14.10;;;3.33;;
14799;SDS011;7491;57.750;11.970;2023-01-29T09:16:02;14.68;;;3.42;;
14799;SDS011;7491;57.750;11.970;2023-01-29T09:18:28;21.20;;;2.85;;
14799;SDS011;7491;57.750;11.970;2023-01-29T09:20:55;15.10;;;3.35;;
14799;SDS011;7491;57.750;11.970;2023-01-29T09:23:22;17.65;;;3.50;;
14799;SDS011;7491;57.750;11.970;2023-01-29T09:25:49;16.23;;;3.10;;
14799;SDS011;7491;57.750;11.970;2023-01-29T09:28:16;21.00;;;3.17;;
14799;SDS011;7491;57.750;11.970;2023-01-29T09:30:42;16.77;;;2.60;;
14799;SDS011;7491;57.750;11.970;2023-01-29T09:33:09;15.10;;;3.22;;
14799;SDS011;7491;57.750;11.970;2023-01-29T09:35:35;20.83;;;3.80;;
14799;SDS011;7491;57.750;11.970;2023-01-29T09:38:02;13.48;;;2.88;;
14799;SDS011;7491;57.750;11.970;2023-01-29T09:40:29;19.85;;;3.58;;
14799;SDS011;7491;57.750;11.970;2023-01-29T09:42:59;22.92;;;3.70;;
14799;SDS011;7491;57.750;11.970;2023-01-29T09:45:27;22.85;;;3.05;;
14799;SDS011;7491;57.750;11.970;2023-01-29T09:47:55;26.20;;;4.90;;
14799;SDS011;7491;57.750;11.970;2023-01-29T09:50:23;43.67;;;4.60;;
14799;SDS011;7491;57.750;11.970;2023-01-29T09:52:52;21.60;;;4.05;;
14799;SDS011;7491;57.750;11.970;2023-01-29T09:55:21;23.35;;;3.35;;
14799;SDS011;7491;57.750;11.970;2023-01-29T09:57:49;26.48;;;4.53;;
14799;SDS011;7491;57.750;11.970;2023-01-29T10:00:20;29.00;;;3.47;;
14799;SDS011;7491;57.750;11.970;2023-01-29T10:02:52;16.13;;;2.28;;
14799;SDS011;7491;57.750;11.970;2023-01-29T10:05:29;19.42;;;3.08;;
14799;SDS011;7491;57.750;11.970;2023-01-29T10:08:12;20.42;;;2.90;;
14799;SDS011;7491;57.750;11.970;2023-01-29T10:10:46;15.73;;;3.53;;
14799;SDS011;7491;57.750;11.970;2023-01-29T10:13:14;18.42;;;3.05;;
14799;SDS011;7491;57.750;11.970;2023-01-29T10:15:51;20.95;;;3.10;;
14799;SDS011;7491;57.750;11.970;2023-01-29T10:21:10;23.02;;;2.83;;
14799;SDS011;7491;57.750;11.970;2023-01-29T10:23:41;25.30;;;4.18;;
14799;SDS011;7491;57.750;11.970;2023-01-29T10:26:09;20.20;;;3.97;;
14799;SDS011;7491;57.750;11.970;2023-01-29T10:28:37;19.05;;;3.63;;
14799;SDS011;7491;57.750;11.970;2023-01-29T10:31:09;16.00;;;3.42;;
14799;SDS011;7491;57.750;11.970;2023-01-29T10:33:37;15.95;;;3.13;;
14799;SDS011;7491;57.750;11.970;2023-01-29T10:36:06;19.58;;;3.58;;
14799;SDS011;7491;57.750;11.970;2023-01-29T10:38:37;19.15;;;3.67;;
14799;SDS011;7491;57.750;11.970;2023-01-29T10:41:10;21.75;;;3.05;;
14799;SDS011;7491;57.750;11.970;2023-01-29T10:43:44;21.10;;;3.75;;
14799;SDS011;7491;57.750;11.970;2023-01-29T10:46:17;18.90;;;3.05;;
14799;SDS011;7491;57.750;11.970;2023-01-29T10:48:51;28.65;;;3.67;;
14799;SDS011;7491;57.750;11.970;2023-01-29T10:51:23;18.65;;;3.13;;
14799;SDS011;7491;57.750;11.970;2023-01-29T10:53:54;21.63;;;4.53;;
14799;SDS011;7491;57.750;11.970;2023-01-29T10:56:27;16.88;;;2.83;;
14799;SDS011;7491;57.750;11.970;2023-01-29T10:58:57;18.77;;;2.80;;
14799;SDS011;7491;57.750;11.970;2023-01-29T11:01:26;20.15;;;2.90;;
14799;SDS011;7491;57.750;11.970;2023-01-29T11:03:56;17.92;;;3.60;;
14799;SDS011;7491;57.750;11.970;2023-01-29T11:06:23;13.80;;;3.28;;
14799;SDS011;7491;57.750;11.970;2023-01-29T11:08:53;16.17;;;4.13;;
14799;SDS011;7491;57.750;11.970;2023-01-29T11:11:22;21.65;;;3.28;;
14799;SDS011;7491;57.750;11.970;2023-01-29T11:13:51;15.00;;;3.45;;
14799;SDS011;7491;57.750;11.970;2023-01-29T11:16:19;17.55;;;3.63;;
14799;SDS011;7491;57.750;11.970;2023-01-29T11:18:52;22.65;;;3.97;;
14799;SDS011;7491;57.750;11.970;2023-01-29T11:21:18;30.60;;;4.90;;
14799;SDS011;7491;57.750;11.970;2023-01-29T11:23:45;22.98;;;3.95;;
14799;SDS011;7491;57.750;11.970;2023-01-29T11:26:12;21.48;;;4.07;;
14799;SDS011;7491;57.750;11.970;2023-01-29T11:28:40;19.42;;;3.67;;
14799;SDS011;7491;57.750;11.970;2023-01-29T11:33:59;12.88;;;3.00;;
14799;SDS011;7491;57.750;11.970;2023-01-29T11:36:28;16.73;;;3.58;;
14799;SDS011;7491;57.750;11.970;2023-01-29T11:39:17;18.88;;;2.63;;
14799;SDS011;7491;57.750;11.970;2023-01-29T11:41:45;23.67;;;3.58;;
14799;SDS011;7491;57.750;11.970;2023-01-29T11:44:19;21.60;;;3.55;;
14799;SDS011;7491;57.750;11.970;2023-01-29T11:46:46;16.67;;;2.97;;
14799;SDS011;7491;57.750;11.970;2023-01-29T11:49:19;20.75;;;3.50;;
14799;SDS011;7491;57.750;11.970;2023-01-29T11:51:49;25.30;;;4.18;;
14799;SDS011;7491;57.750;11.970;2023-01-29T11:54:16;18.58;;;3.20;;
14799;SDS011;7491;57.750;11.970;2023-01-29T11:56:44;17.05;;;3.10;;
14799;SDS011;7491;57.750;11.970;2023-01-29T11:59:21;16.27;;;3.17;;
14799;SDS011;7491;57.750;11.970;2023-01-29T12:01:52;14.52;;;3.38;;
14799;SDS011;7491;57.750;11.970;2023-01-29T12:04:21;22.25;;;3.15;;
14799;SDS011;7491;57.750;11.970;2023-01-29T12:06:48;17.08;;;2.65;;
14799;SDS011;7491;57.750;11.970;2023-01-29T12:09:17;21.60;;;4.10;;
14799;SDS011;7491;57.750;11.970;2023-01-29T12:11:44;16.52;;;2.88;;
14799;SDS011;7491;57.750;11.970;2023-01-29T12:16:53;14.77;;;3.45;;
14799;SDS011;7491;57.750;11.970;2023-01-29T12:19:24;17.00;;;3.55;;
14799;SDS011;7491;57.750;11.970;2023-01-29T12:21:52;21.10;;;3.53;;
14799;SDS011;7491;57.750;11.970;2023-01-29T12:24:29;22.52;;;3.47;;
14799;SDS011;7491;57.750;11.970;2023-01-29T12:26:58;16.13;;;3.05;;
14799;SDS011;7491;57.750;11.970;2023-01-29T12:29:29;16.73;;;3.78;;
14799;SDS011;7491;57.750;11.970;2023-01-29T12:31:59;10.95;;;2.88;;
14799;SDS011;7491;57.750;11.970;2023-01-29T12:34:29;18.80;;;3.50;;
14799;SDS011;7491;57.750;11.970;2023-01-29T12:36:59;19.42;;;2.85;;
14799;SDS011;7491;57.750;11.970;2023-01-29T12:39:28;22.35;;;3.10;;
14799;SDS011;7491;57.750;11.970;2023-01-29T12:41:56;18.17;;;3.25;;
14799;SDS011;7491;57.750;11.970;2023-01-29T12:44:25;18.42;;;3.30;;
14799;SDS011;7491;57.750;11.970;2023-01-29T12:46:55;18.95;;;2.55;;
14799;SDS011;7491;57.750;11.970;2023-01-29T12:49:25;15.65;;;4.05;;
14799;SDS011;7491;57.750;11.970;2023-01-29T12:51:54;19.42;;;4.03;;
14799;SDS011;7491;57.750;11.970;2023-01-29T12:54:25;11.32;;;2.30;;
14799;SDS011;7491;57.750;11.970;2023-01-29T12:56:55;15.20;;;2.90;;
14799;SDS011;7491;57.750;11.970;2023-01-29T12:59:25;11.45;;;2.72;;
14799;SDS011;7491;57.750;11.970;2023-01-29T13:01:53;16.90;;;2.60;;
14799;SDS011;7491;57.750;11.970;2023-01-29T13:04:24;11.20;;;2.65;;
14799;SDS011;7491;57.750;11.970;2023-01-29T13:06:58;17.60;;;2.80;;
14799;SDS011;7491;57.750;11.970;2023-01-29T13:09:28;13.02;;;3.05;;
14799;SDS011;7491;57.750;11.970;2023-01-29T13:11:58;12.23;;;2.63;;
14799;SDS011;7491;57.750;11.970;2023-01-29T13:14:28;13.63;;;2.72;;
14799;SDS011;7491;57.750;11.970;2023-01-29T13:17:00;10.40;;;2.72;;
14799;SDS011;7491;57.750;11.970;2023-01-29T13:19:28;16.55;;;2.72;;
14799;SDS011;7491;57.750;11.970;2023-01-29T13:21:59;16.27;;;2.30;;
14799;SDS011;7491;57.750;11.970;2023-01-29T13:24:29;15.65;;;2.67;;
14799;SDS011;7491;57.750;11.970;2023-01-29T13:26:58;12.38;;;2.22;;
14799;SDS011;7491;57.750;11.970;2023-01-29T13:29:25;21.83;;;3.33;;
14799;SDS011;7491;57.750;11.970;2023-01-29T13:31:53;12.18;;;2.45;;
14799;SDS011;7491;57.750;11.970;2023-01-29T13:34:20;16.00;;;2.30;;
14799;SDS011;7491;57.750;11.970;2023-01-29T13:36:47;10.18;;;2.85;;
14799;SDS011;7491;57.750;11.970;2023-01-29T13:39:17;17.65;;;2.55;;
14799;SDS011;7491;57.750;11.970;2023-01-29T13:41:45;18.98;;;2.85;;
14799;SDS011;7491;57.750;11.970;2023-01-29T13:44:17;15.90;;;2.47;;
14799;SDS011;7491;57.750;11.970;2023-01-29T13:46:47;10.48;;;2.72;;
14799;SDS011;7491;57.750;11.970;2023-01-29T13:49:23;19.88;;;2.58;;
14799;SDS011;7491;57.750;11.970;2023-01-29T13:51:50;21.90;;;3.50;;
14799;SDS011;7491;57.750;11.970;2023-01-29T13:54:19;14.10;;;2.20;;
14799;SDS011;7491;57.750;11.970;2023-01-29T13:56:55;12.57;;;2.40;;
14799;SDS011;7491;57.750;11.970;2023-01-29T13:59:23;19.13;;;3.15;;
14799;SDS011;7491;57.750;11.970;2023-01-29T14:02:00;16.98;;;3.00;;
14799;SDS011;7491;57.750;11.970;2023-01-29T14:04:29;18.05;;;2.90;;
14799;SDS011;7491;57.750;11.970;2023-01-29T14:06:56;18.23;;;2.70;;
14799;SDS011;7491;57.750;11.970;2023-01-29T14:12:34;17.55;;;3.00;;
14799;SDS011;7491;57.750;11.970;2023-01-29T14:15:03;16.98;;;2.80;;
14799;SDS011;7491;57.750;11.970;2023-01-29T14:17:31;15.32;;;2.63;;
14799;SDS011;7491;57.750;11.970;2023-01-29T14:19:58;14.63;;;2.83;;
14799;SDS011;7491;57.750;11.970;2023-01-29T14:22:26;14.98;;;2.70;;
14799;SDS011;7491;57.750;11.970;2023-01-29T14:24:54;13.68;;;2.67;;
14799;SDS011;7491;57.750;11.970;2023-01-29T14:27:21;17.63;;;2.38;;
14799;SDS011;7491;57.750;11.970;2023-01-29T14:29:50;19.52;;;3.00;;
14799;SDS011;7491;57.750;11.970;2023-01-29T14:32:21;20.98;;;2.83;;
14799;SDS011;7491;57.750;11.970;2023-01-29T14:34:49;10.75;;;2.53;;
14799;SDS011;7491;57.750;11.970;2023-01-29T14:37:19;15.65;;;2.40;;
14799;SDS011;7491;57.750;11.970;2023-01-29T14:39:47;20.23;;;3.13;;
14799;SDS011;7491;57.750;11.970;2023-01-29T14:42:17;20.15;;;3.80;;
14799;SDS011;7491;57.750;11.970;2023-01-29T14:44:55;15.48;;;3.22;;
14799;SDS011;7491;57.750;11.970;2023-01-29T14:50:05;21.90;;;7.63;;
14799;SDS011;7491;57.750;11.970;2023-01-29T14:52:51;22.45;;;5.38;;
14799;SDS011;7491;57.750;11.970;2023-01-29T14:55:23;20.70;;;3.10;;
14799;SDS011;7491;57.750;11.970;2023-01-29T14:57:52;17.45;;;3.55;;
14799;SDS011;7491;57.750;11.970;2023-01-29T15:00:23;12.48;;;3.55;;
14799;SDS011;7491;57.750;11.970;2023-01-29T15:02:51;17.65;;;2.13;;